Time;durP1;ratioP1;P1;durP2;ratioP2;P2;SDS_P1;SDS_P2;PMS_P1;PMS_P2;Temp;Humidity;BMP_temperature;BMP_pressure;BME280_temperature;BME280_humidity;BME280_pressure;Samples;Min_cycle;Max_cycle;Signal;HPM_P1;HPM_P2
2024/03/24 00:01:53;;;;;;;2.20;0.98;;;;;;;7.39;82.46;99441.78;5032565;28;20037;-67
2024/03/24 00:04:19;;;;;;;0.85;0.85;;;;;;;7.42;82.11;99427.66;5026739;28;20020;-67
2024/03/24 00:06:44;;;;;;;1.65;0.82;;;;;;;7.44;81.69;99433.44;5040033;28;20037;-68
2024/03/24 00:09:13;;;;;;;3.58;1.20;;;;;;;7.37;81.86;99426.09;5056333;28;20462;-65
2024/03/24 00:11:41;;;;;;;2.40;0.95;;;;;;;7.37;82.21;99428.00;5023117;28;20076;-67
2024/03/24 00:14:06;;;;;;;3.10;1.05;;;;;;;7.35;81.72;99422.22;5037351;28;20042;-67
2024/03/24 00:16:32;;;;;;;1.20;1.10;;;;;;;7.37;81.85;99415.38;5043044;28;20060;-66
2024/03/24 00:18:58;;;;;;;0.82;0.82;;;;;;;7.46;81.38;99409.72;5011018;28;20486;-68
2024/03/24 00:21:24;;;;;;;2.05;0.93;;;;;;;7.43;81.51;99407.78;5037770;28;20064;-66
2024/03/24 00:23:50;;;;;;;1.30;0.95;;;;;;;7.46;81.13;99407.84;5006638;28;20025;-66
2024/03/24 00:26:15;;;;;;;3.15;0.85;;;;;;;7.11;81.71;99399.34;5024350;28;20033;-66
2024/03/24 00:28:41;;;;;;;2.95;1.17;;;;;;;7.12;82.64;99401.66;5047177;28;20450;-67
2024/03/24 00:31:06;;;;;;;2.28;0.82;;;;;;;7.13;83.24;99397.84;5045317;28;20153;-66
2024/03/24 00:33:32;;;;;;;0.95;0.85;;;;;;;7.18;82.76;99402.88;5025983;28;20109;-67
2024/03/24 00:35:58;;;;;;;1.33;0.80;;;;;;;7.10;83.34;99400.47;5030313;28;20398;-67
2024/03/24 00:38:23;;;;;;;2.03;1.17;;;;;;;7.24;82.19;99392.63;5011097;28;20387;-66
2024/03/24 00:40:49;;;;;;;1.95;1.13;;;;;;;7.24;82.05;99396.06;5043412;28;20478;-67
2024/03/24 00:43:15;;;;;;;1.33;0.90;;;;;;;7.20;82.24;99389.91;5013384;28;20021;-67
2024/03/24 00:45:40;;;;;;;1.30;0.73;;;;;;;7.10;82.76;99387.09;5028970;28;20478;-67
2024/03/24 00:48:06;;;;;;;3.08;1.17;;;;;;;7.07;83.32;99382.47;5023900;28;20032;-67
2024/03/24 00:50:32;;;;;;;1.00;0.90;;;;;;;7.22;83.04;99376.16;5029442;28;20048;-68
2024/03/24 00:52:58;;;;;;;1.02;0.90;;;;;;;7.15;82.68;99381.44;5031709;28;20030;-67
2024/03/24 00:55:25;;;;;;;1.98;0.95;;;;;;;7.11;83.23;99372.56;5028203;28;20032;-66
2024/03/24 00:57:51;;;;;;;1.25;0.70;;;;;;;7.18;82.98;99370.75;5045808;28;20494;-67
2024/03/24 01:00:17;;;;;;;1.45;0.82;;;;;;;7.19;82.48;99371.53;5010613;28;20430;-66
2024/03/24 01:02:48;;;;;;;1.88;0.98;;;;;;;7.12;83.29;99364.16;5028573;28;20455;-68
2024/03/24 01:05:13;;;;;;;1.33;1.02;;;;;;;7.09;83.85;99359.56;5062312;28;20025;-66
2024/03/24 01:07:39;;;;;;;1.95;1.67;;;;;;;7.17;83.67;99355.84;5031652;28;20071;-67
2024/03/24 01:10:05;;;;;;;1.70;1.10;;;;;;;7.10;84.01;99350.38;5058232;28;20091;-67
2024/03/24 01:12:30;;;;;;;2.22;1.00;;;;;;;6.85;85.00;99346.63;5012576;28;20069;-67
2024/03/24 01:14:56;;;;;;;0.93;0.70;;;;;;;6.99;85.02;99343.34;5025494;28;20033;-67
2024/03/24 01:17:21;;;;;;;1.67;1.08;;;;;;;7.06;84.67;99341.56;5025520;28;20038;-66
2024/03/24 01:19:47;;;;;;;4.18;1.55;;;;;;;7.01;85.24;99346.44;5031338;28;20069;-67
2024/03/24 01:22:12;;;;;;;1.45;1.02;;;;;;;6.99;84.90;99335.31;5026051;28;20025;-67
2024/03/24 01:24:38;;;;;;;1.20;0.95;;;;;;;7.02;84.83;99330.03;5038996;28;20558;-67
2024/03/24 01:27:03;;;;;;;1.23;1.05;;;;;;;7.12;84.91;99334.72;5041045;28;20041;-68
2024/03/24 01:29:29;;;;;;;1.10;1.00;;;;;;;7.12;84.85;99329.38;5036196;28;20030;-66
2024/03/24 01:31:55;;;;;;;1.63;0.75;;;;;;;7.27;84.15;99327.66;5027691;28;20053;-67
2024/03/24 01:34:21;;;;;;;1.73;1.17;;;;;;;7.32;84.08;99318.53;5011115;28;20057;-67
2024/03/24 01:36:47;;;;;;;2.17;1.33;;;;;;;7.21;84.73;99311.16;5030130;28;20045;-65
2024/03/24 01:39:14;;;;;;;0.55;0.43;;;;;;;7.30;84.36;99306.28;5023395;28;20038;-66
2024/03/24 01:41:40;;;;;;;5.88;1.58;;;;;;;7.16;84.66;99308.03;5048719;28;20121;-66
2024/03/24 01:44:05;;;;;;;1.77;1.10;;;;;;;7.11;85.47;99305.66;5032157;28;20578;-66
2024/03/24 01:46:31;;;;;;;0.95;0.88;;;;;;;6.90;85.42;99306.19;5032658;28;20116;-67
2024/03/24 01:48:57;;;;;;;1.50;0.90;;;;;;;6.87;86.57;99298.88;5018812;28;20027;-67
2024/03/24 01:51:22;;;;;;;1.52;1.13;;;;;;;6.99;86.40;99282.59;5028321;28;20025;-67
2024/03/24 01:53:50;;;;;;;1.77;1.13;;;;;;;7.14;85.39;99295.00;5040532;28;20076;-66
2024/03/24 01:56:16;;;;;;;0.82;0.77;;;;;;;7.18;84.43;99292.38;5023956;28;20184;-67
2024/03/24 01:58:41;;;;;;;1.17;0.82;;;;;;;7.00;85.48;99280.69;5038820;28;20030;-67
2024/03/24 02:01:08;;;;;;;2.15;1.25;;;;;;;6.90;86.19;99279.44;5011122;28;20056;-69
2024/03/24 02:03:36;;;;;;;2.88;1.70;;;;;;;7.05;85.89;99266.97;5025814;28;20029;-66
2024/03/24 02:06:02;;;;;;;1.80;1.10;;;;;;;7.17;85.45;99272.09;5028361;28;20150;-67
2024/03/24 02:08:31;;;;;;;1.20;1.10;;;;;;;7.12;85.40;99259.03;5032683;28;20072;-67
2024/03/24 02:11:00;;;;;;;0.95;0.90;;;;;;;7.17;85.74;99267.50;5025789;28;20124;-65
2024/03/24 02:13:26;;;;;;;1.83;1.23;;;;;;;7.08;85.43;99253.63;5025838;28;20021;-66
2024/03/24 02:15:54;;;;;;;1.67;1.00;;;;;;;7.08;86.09;99253.63;5028307;28;20410;-66
2024/03/24 02:18:23;;;;;;;4.50;1.52;;;;;;;6.93;86.82;99249.25;5028588;28;20074;-67
2024/03/24 02:20:50;;;;;;;3.17;1.52;;;;;;;7.14;86.45;99244.13;5045243;28;20028;-67
2024/03/24 02:23:15;;;;;;;2.65;1.60;;;;;;;7.02;86.25;99240.94;5044193;28;20029;-68
2024/03/24 02:25:41;;;;;;;1.13;1.00;;;;;;;7.11;85.94;99239.53;5061296;28;20049;-67
2024/03/24 02:28:07;;;;;;;1.98;1.52;;;;;;;7.20;86.33;99242.69;5033482;28;20034;-66
2024/03/24 02:30:32;;;;;;;3.55;1.70;;;;;;;7.13;85.91;99229.22;5008808;28;20044;-65
2024/03/24 02:32:58;;;;;;;1.77;1.23;;;;;;;6.96;87.36;99237.06;5033720;28;20522;-67
2024/03/24 02:35:25;;;;;;;2.17;1.27;;;;;;;7.10;86.96;99240.66;5034691;28;20034;-68
2024/03/24 02:37:50;;;;;;;2.40;1.83;;;;;;;7.07;87.48;99227.22;5065823;28;20052;-67
2024/03/24 02:40:16;;;;;;;3.50;1.75;;;;;;;7.19;86.29;99227.75;5043192;28;20042;-66
2024/03/24 02:42:41;;;;;;;1.75;1.40;;;;;;;7.40;86.33;99226.41;5049464;28;20037;-66
2024/03/24 02:45:07;;;;;;;2.03;1.20;;;;;;;7.36;86.39;99209.53;5029609;28;20091;-64
2024/03/24 02:47:33;;;;;;;3.90;2.03;;;;;;;7.45;85.59;99205.44;5049313;28;20504;-66
2024/03/24 02:49:59;;;;;;;3.58;2.35;;;;;;;7.32;85.85;99196.91;5032783;28;20033;-66
2024/03/24 02:52:24;;;;;;;2.83;1.45;;;;;;;7.36;85.30;99204.19;5033433;28;20133;-66
2024/03/24 02:54:50;;;;;;;3.70;1.45;;;;;;;7.45;85.98;99196.63;5034138;28;20057;-65
2024/03/24 02:57:15;;;;;;;10.77;2.20;;;;;;;7.22;86.31;99189.53;5029199;28;20068;-66
2024/03/24 02:59:41;;;;;;;2.72;1.58;;;;;;;7.32;86.79;99178.16;5033156;28;20037;-66
2024/03/24 03:02:07;;;;;;;1.45;1.23;;;;;;;7.34;86.38;99175.13;5044565;28;20033;-66
2024/03/24 03:04:32;;;;;;;1.85;1.42;;;;;;;7.31;85.90;99175.88;5034894;28;20091;-65
2024/03/24 03:06:59;;;;;;;2.80;1.70;;;;;;;7.61;85.17;99170.34;5031662;28;20095;-67
2024/03/24 03:09:26;;;;;;;1.85;1.50;;;;;;;7.40;85.34;99162.16;5031077;28;20033;-65
2024/03/24 03:11:54;;;;;;;7.55;1.63;;;;;;;7.40;85.77;99162.16;5029230;28;20033;-67
2024/03/24 03:14:20;;;;;;;3.72;2.15;;;;;;;7.43;85.70;99154.16;5044796;28;20487;-65
2024/03/24 03:16:46;;;;;;;2.10;1.52;;;;;;;7.49;85.89;99154.59;5009316;28;20041;-67
2024/03/24 03:19:11;;;;;;;1.77;1.55;;;;;;;7.57;85.24;99161.56;5069775;28;20056;-68
2024/03/24 03:21:37;;;;;;;3.53;1.90;;;;;;;7.53;85.00;99147.34;5043393;28;20083;-65
2024/03/24 03:24:03;;;;;;;3.20;1.45;;;;;;;7.41;85.61;99151.09;5048650;28;20156;-65
2024/03/24 03:26:29;;;;;;;1.33;1.13;;;;;;;7.54;85.80;99151.56;5017105;28;20033;-66
2024/03/24 03:28:54;;;;;;;3.40;2.00;;;;;;;7.52;85.76;99138.53;5038442;28;20041;-65
2024/03/24 03:31:20;;;;;;;6.13;2.17;;;;;;;7.57;85.70;99143.53;5035355;28;20098;-65
2024/03/24 03:33:46;;;;;;;5.07;1.98;;;;;;;7.54;85.06;99130.91;5032800;28;20144;-65
2024/03/24 03:36:11;;;;;;;1.90;1.55;;;;;;;7.59;86.09;99127.13;5032074;28;20034;-66
2024/03/24 03:38:37;;;;;;;2.25;1.60;;;;;;;7.46;85.86;99123.19;5037279;28;20033;-67
2024/03/24 03:41:02;;;;;;;4.63;2.13;;;;;;;7.51;85.16;99120.19;5013769;28;20403;-67
2024/03/24 03:43:28;;;;;;;3.35;1.70;;;;;;;7.66;85.28;99119.91;5048198;28;20033;-66
2024/03/24 03:45:53;;;;;;;4.20;1.58;;;;;;;7.64;84.82;99114.16;5030756;28;20064;-65
2024/03/24 03:48:19;;;;;;;4.53;2.25;;;;;;;7.65;84.69;99122.94;5064127;28;20542;-67
2024/03/24 03:50:46;;;;;;;4.35;2.55;;;;;;;7.50;84.30;99113.28;5051153;28;20040;-66
2024/03/24 03:53:17;;;;;;;4.38;2.15;;;;;;;7.24;86.01;99106.19;5039628;28;20055;-66
2024/03/24 03:55:47;;;;;;;7.15;2.28;;;;;;;7.16;86.51;99110.72;5036866;28;20113;-66
2024/03/24 03:58:13;;;;;;;4.57;2.73;;;;;;;7.43;86.25;99107.88;5036954;28;20043;-66
2024/03/24 04:00:38;;;;;;;4.82;2.65;;;;;;;7.54;85.58;99114.06;5061702;28;20038;-66
2024/03/24 04:03:04;;;;;;;4.50;2.13;;;;;;;7.61;85.71;99111.44;5047282;28;20121;-67
2024/03/24 04:05:29;;;;;;;3.92;2.05;;;;;;;7.67;84.64;99104.59;5052905;28;20025;-67
2024/03/24 04:07:55;;;;;;;7.38;3.75;;;;;;;7.53;85.24;99101.81;5035549;28;20061;-66
2024/03/24 04:10:20;;;;;;;4.65;2.60;;;;;;;7.49;85.28;99098.34;5043991;28;20071;-66
2024/03/24 04:12:49;;;;;;;5.50;2.60;;;;;;;7.55;85.28;99091.50;5030486;28;20025;-66
2024/03/24 04:15:15;;;;;;;4.78;2.75;;;;;;;7.49;85.31;99088.38;5033752;28;20035;-67
2024/03/24 04:17:43;;;;;;;5.38;3.03;;;;;;;7.51;85.76;99088.78;5030396;28;20072;-66
2024/03/24 04:20:11;;;;;;;5.55;2.97;;;;;;;7.74;83.94;99080.53;5045831;28;20053;-66
2024/03/24 04:22:36;;;;;;;5.25;2.78;;;;;;;7.82;83.95;99076.75;5043181;28;20111;-66
2024/03/24 04:25:02;;;;;;;7.90;3.13;;;;;;;7.66;84.30;99074.38;5032751;28;20021;-67
2024/03/24 04:27:27;;;;;;;6.60;3.35;;;;;;;7.73;84.38;99073.63;5026602;28;20056;-66
2024/03/24 04:29:53;;;;;;;7.97;3.60;;;;;;;7.78;84.08;99060.63;5030361;28;20022;-66
2024/03/24 04:32:18;;;;;;;8.77;2.72;;;;;;;7.63;84.56;99058.25;5015973;28;20555;-67
2024/03/24 04:34:43;;;;;;;7.57;3.03;;;;;;;7.68;84.69;99053.34;5030268;28;20394;-67
2024/03/24 04:37:09;;;;;;;8.15;3.70;;;;;;;7.73;83.75;99063.69;5026664;28;20037;-66
2024/03/24 04:39:34;;;;;;;5.55;3.17;;;;;;;7.52;84.25;99058.19;5029613;28;20138;-66
2024/03/24 04:42:00;;;;;;;5.57;3.25;;;;;;;7.59;84.94;99060.91;5032776;28;20052;-66
2024/03/24 04:44:26;;;;;;;8.85;3.45;;;;;;;7.48;85.38;99054.72;5037973;28;20063;-68
2024/03/24 04:46:53;;;;;;;6.50;3.28;;;;;;;7.53;85.62;99064.34;5030334;28;20017;-66
2024/03/24 04:49:20;;;;;;;8.10;3.63;;;;;;;7.71;84.88;99057.16;5025361;28;20470;-66
2024/03/24 04:51:45;;;;;;;9.20;4.07;;;;;;;7.52;85.03;99060.09;5013108;28;20116;-66
2024/03/24 04:54:11;;;;;;;6.07;3.63;;;;;;;7.50;86.07;99063.16;5029821;28;20067;-66
2024/03/24 04:56:36;;;;;;;5.50;3.78;;;;;;;7.68;85.75;99052.56;5046903;28;20120;-66
2024/03/24 04:59:02;;;;;;;12.00;3.85;;;;;;;7.85;84.32;99052.66;5035625;28;20029;-66
2024/03/24 05:01:27;;;;;;;9.50;5.03;;;;;;;7.54;85.71;99055.91;5029996;28;20029;-66
2024/03/24 05:03:53;;;;;;;14.10;3.35;;;;;;;7.72;84.91;99050.66;5045878;28;20499;-67
2024/03/24 05:06:19;;;;;;;7.35;2.92;;;;;;;7.69;85.47;99046.03;5028046;28;20044;-66
2024/03/24 05:08:45;;;;;;;13.68;4.18;;;;;;;7.51;86.50;99047.88;5031452;28;20068;-66
2024/03/24 05:11:11;;;;;;;6.30;3.70;;;;;;;7.74;85.59;99046.44;5029226;28;20644;-67
2024/03/24 05:13:40;;;;;;;4.72;3.08;;;;;;;7.82;84.87;99049.97;5029737;28;20087;-66
2024/03/24 05:16:10;;;;;;;7.05;4.25;;;;;;;7.91;84.22;99047.69;5032627;28;20040;-66
2024/03/24 05:18:36;;;;;;;8.43;4.15;;;;;;;7.59;85.65;99042.16;5042625;28;20042;-66
2024/03/24 05:21:04;;;;;;;7.78;4.22;;;;;;;7.82;84.92;99040.00;5046538;28;20124;-66
2024/03/24 05:23:29;;;;;;;7.90;4.60;;;;;;;7.73;85.11;99036.88;5043707;28;20546;-66
2024/03/24 05:25:55;;;;;;;10.63;4.60;;;;;;;7.53;85.98;99038.28;5029451;28;20044;-66
2024/03/24 05:28:21;;;;;;;10.60;4.50;;;;;;;7.68;85.97;99039.16;5035408;28;20041;-67
2024/03/24 05:30:47;;;;;;;6.93;3.53;;;;;;;7.78;85.41;99038.44;5032059;28;20037;-67
2024/03/24 05:33:13;;;;;;;6.88;4.13;;;;;;;7.83;85.41;99043.44;5031214;28;20486;-66
2024/03/24 05:35:39;;;;;;;9.18;4.15;;;;;;;7.90;84.51;99040.78;5026214;28;20047;-67
2024/03/24 05:38:04;;;;;;;5.72;3.67;;;;;;;7.84;84.87;99035.03;5029069;28;20037;-69
2024/03/24 05:40:30;;;;;;;10.02;4.55;;;;;;;7.72;85.39;99040.72;5030673;28;20057;-66
2024/03/24 05:42:56;;;;;;;7.28;3.83;;;;;;;7.89;85.12;99036.59;5031273;28;20104;-67
2024/03/24 05:45:21;;;;;;;6.70;4.10;;;;;;;7.93;84.39;99034.69;5030407;28;20540;-66
2024/03/24 05:47:48;;;;;;;8.45;4.15;;;;;;;7.77;85.86;99034.22;5045098;28;20394;-67
2024/03/24 05:50:14;;;;;;;5.85;3.20;;;;;;;7.87;85.90;99031.59;5063399;28;20025;-66
2024/03/24 05:52:41;;;;;;;13.52;3.88;;;;;;;7.91;85.56;99032.38;5037963;28;20036;-67
2024/03/24 05:55:07;;;;;;;8.23;4.57;;;;;;;7.82;85.69;99029.28;5032738;28;20048;-67
2024/03/24 05:57:33;;;;;;;9.18;4.25;;;;;;;7.91;85.07;99036.97;5029352;28;20429;-67
2024/03/24 05:59:59;;;;;;;9.20;3.72;;;;;;;7.86;86.27;99026.59;5028490;28;20021;-67
2024/03/24 06:02:26;;;;;;;11.18;3.67;;;;;;;8.04;85.44;99036.25;5030992;28;20117;-67
2024/03/24 06:04:53;;;;;;;10.95;4.30;;;;;;;8.08;85.23;99028.22;5057127;28;20025;-68
2024/03/24 06:07:19;;;;;;;6.65;3.90;;;;;;;7.82;86.57;99037.31;5027744;28;20088;-67
2024/03/24 06:09:44;;;;;;;6.05;3.55;;;;;;;7.84;86.61;99034.28;5042380;28;20445;-66
2024/03/24 06:12:09;;;;;;;5.97;3.60;;;;;;;8.02;85.77;99035.88;5026090;28;20021;-68
2024/03/24 06:14:35;;;;;;;6.40;3.53;;;;;;;7.95;85.97;99029.72;5030271;28;20025;-65
2024/03/24 06:17:00;;;;;;;6.65;3.78;;;;;;;8.00;85.97;99029.34;5025059;28;20029;-68
2024/03/24 06:19:26;;;;;;;5.28;3.28;;;;;;;7.92;86.29;99030.47;5027455;28;20040;-71
2024/03/24 06:21:53;;;;;;;7.60;4.10;;;;;;;7.85;86.25;99025.06;5049777;28;20441;-65
2024/03/24 06:24:18;;;;;;;6.65;3.97;;;;;;;7.94;87.07;99026.25;5034775;28;20033;-65
2024/03/24 06:26:44;;;;;;;7.43;4.07;;;;;;;8.00;86.53;99021.31;5042039;28;20037;-66
2024/03/24 06:29:10;;;;;;;6.25;3.83;;;;;;;8.18;85.57;99028.28;5058569;28;20033;-67
2024/03/24 06:31:36;;;;;;;7.63;3.67;;;;;;;8.07;85.65;99019.41;5026580;28;20025;-67
2024/03/24 06:34:03;;;;;;;8.18;4.22;;;;;;;8.24;85.27;99031.34;5031517;28;20113;-66
2024/03/24 06:36:29;;;;;;;6.10;3.50;;;;;;;8.20;85.34;99028.66;5050761;28;20029;-66
2024/03/24 06:38:55;;;;;;;4.40;3.33;;;;;;;8.23;85.88;99037.09;5030540;28;20033;-66
2024/03/24 06:41:21;;;;;;;6.40;3.33;;;;;;;8.19;86.10;99024.44;5028083;28;20034;-66
2024/03/24 06:43:46;;;;;;;4.53;3.03;;;;;;;8.39;85.45;99019.53;5014265;28;20044;-65
2024/03/24 06:46:11;;;;;;;5.70;2.90;;;;;;;8.40;85.51;99023.75;5041001;28;20045;-66
2024/03/24 06:48:37;;;;;;;5.38;2.88;;;;;;;8.11;86.72;99014.84;5032249;28;20112;-66
2024/03/24 06:51:04;;;;;;;3.38;2.47;;;;;;;8.26;86.02;99021.06;5030100;28;20025;-65
2024/03/24 06:53:30;;;;;;;3.00;1.90;;;;;;;7.99;86.70;99017.09;5032827;28;20115;-65
2024/03/24 06:55:55;;;;;;;5.15;2.80;;;;;;;8.22;86.52;99014.88;5024932;28;20088;-66
2024/03/24 06:58:21;;;;;;;2.95;2.25;;;;;;;8.06;87.10;99022.47;5006516;28;20063;-65
2024/03/24 07:00:51;;;;;;;4.10;2.15;;;;;;;8.18;86.42;99019.47;5046875;28;20083;-65
2024/03/24 07:03:17;;;;;;;4.38;2.10;;;;;;;7.82;87.10;99018.56;5022018;28;20034;-64
2024/03/24 07:05:42;;;;;;;3.45;1.77;;;;;;;7.82;87.83;99020.47;5026655;28;20132;-65
2024/03/24 07:08:08;;;;;;;3.05;1.80;;;;;;;7.82;88.86;99013.19;5032317;28;20029;-66
2024/03/24 07:10:33;;;;;;;6.68;1.80;;;;;;;7.88;89.58;99017.06;5009993;28;20053;-66
2024/03/24 07:12:58;;;;;;;1.80;1.38;;;;;;;8.21;89.00;99018.69;5023856;28;20038;-65
2024/03/24 07:15:24;;;;;;;2.08;1.30;;;;;;;8.19;88.79;99012.94;5026838;28;20112;-66
2024/03/24 07:17:52;;;;;;;1.83;1.33;;;;;;;8.03;90.97;99015.22;5029617;28;20053;-65
2024/03/24 07:20:18;;;;;;;3.97;1.50;;;;;;;8.17;90.93;99023.28;5025049;28;20095;-65
2024/03/24 07:22:43;;;;;;;4.13;1.90;;;;;;;8.05;91.21;99019.03;5035878;28;20044;-65
2024/03/24 07:25:10;;;;;;;2.22;1.60;;;;;;;7.83;91.30;99017.41;5031102;28;20025;-65
2024/03/24 07:27:36;;;;;;;1.85;1.42;;;;;;;8.16;90.40;99024.44;5041975;28;20040;-66
2024/03/24 07:30:02;;;;;;;2.38;1.90;;;;;;;8.01;90.42;99020.19;5030447;28;20405;-65
2024/03/24 07:32:27;;;;;;;3.22;1.58;;;;;;;8.12;90.04;99020.97;5038577;28;20427;-65
2024/03/24 07:34:53;;;;;;;3.40;2.08;;;;;;;8.10;90.49;99016.00;5027833;28;20017;-66
2024/03/24 07:37:19;;;;;;;3.67;1.90;;;;;;;7.90;91.25;99025.47;5046241;28;20030;-65
2024/03/24 07:39:44;;;;;;;3.10;1.60;;;;;;;7.88;90.54;99011.69;5069494;28;20123;-67
2024/03/24 07:42:10;;;;;;;1.17;1.08;;;;;;;7.98;90.16;99021.69;5031360;28;20753;-66
2024/03/24 07:44:36;;;;;;;2.22;1.65;;;;;;;7.98;89.58;99021.69;5032333;28;20025;-66
2024/03/24 07:47:06;;;;;;;2.53;1.58;;;;;;;8.09;89.13;99017.13;5034907;28;20067;-66
2024/03/24 07:49:34;;;;;;;2.83;1.48;;;;;;;8.07;88.63;99021.34;5033412;28;20041;-68
2024/03/24 07:51:59;;;;;;;1.55;1.25;;;;;;;8.28;88.00;99028.72;5062573;28;20750;-66
2024/03/24 07:54:25;;;;;;;3.60;1.45;;;;;;;8.28;88.03;99023.34;5031101;28;20040;-66
2024/03/24 07:56:50;;;;;;;2.17;1.50;;;;;;;8.52;86.61;99018.03;5047324;28;20080;-67
2024/03/24 07:59:17;;;;;;;2.05;1.50;;;;;;;8.21;86.32;99027.50;5030299;28;20079;-66
2024/03/24 08:01:43;;;;;;;1.50;1.30;;;;;;;8.06;87.56;99019.81;5044617;28;20037;-66
2024/03/24 08:04:09;;;;;;;3.10;1.80;;;;;;;8.40;87.36;99028.38;5031562;28;20028;-66
2024/03/24 08:06:35;;;;;;;1.77;1.50;;;;;;;8.49;87.17;99024.16;5034392;28;20033;-66
2024/03/24 08:09:00;;;;;;;3.83;1.23;;;;;;;8.56;86.79;99026.84;5033434;28;20033;-67
2024/03/24 08:11:26;;;;;;;6.78;1.63;;;;;;;8.77;86.17;99020.72;5048321;28;20034;-70
2024/03/24 08:13:51;;;;;;;4.60;1.67;;;;;;;8.80;85.23;99023.44;5026570;28;20075;-67
2024/03/24 08:16:17;;;;;;;2.22;1.30;;;;;;;8.80;85.33;99025.34;5067179;28;20039;-66
2024/03/24 08:18:42;;;;;;;3.00;1.70;;;;;;;8.92;85.31;99033.78;5070624;28;20036;-66
2024/03/24 08:21:09;;;;;;;1.92;1.67;;;;;;;8.83;85.10;99029.94;5034413;28;20025;-67
2024/03/24 08:23:35;;;;;;;2.30;1.45;;;;;;;8.48;85.17;99029.91;5046500;28;20025;-67
2024/03/24 08:26:00;;;;;;;2.70;1.52;;;;;;;8.54;85.97;99031.84;5027215;28;20068;-67
2024/03/24 08:28:26;;;;;;;2.42;1.60;;;;;;;8.66;85.40;99028.78;5033925;28;20064;-65
2024/03/24 08:30:53;;;;;;;2.75;1.92;;;;;;;8.84;85.63;99020.75;5028115;28;20116;-66
2024/03/24 08:33:18;;;;;;;2.45;1.65;;;;;;;9.02;85.71;99024.97;5029922;28;20029;-68
2024/03/24 08:35:44;;;;;;;2.92;2.05;;;;;;;9.28;84.98;99021.13;5047094;28;20152;-67
2024/03/24 08:38:09;;;;;;;6.57;2.40;;;;;;;9.29;84.29;99019.19;5030851;28;20022;-66
2024/03/24 08:40:35;;;;;;;2.88;1.65;;;;;;;9.50;83.02;99021.84;5049398;28;20063;-68
2024/03/24 08:43:00;;;;;;;3.03;2.10;;;;;;;9.52;82.84;99016.84;5024432;28;20029;-67
2024/03/24 08:45:26;;;;;;;3.20;2.05;;;;;;;9.47;83.26;99015.31;5046101;28;20029;-67
2024/03/24 08:47:51;;;;;;;5.53;1.58;;;;;;;9.61;82.42;99019.91;5030439;28;20117;-67
2024/03/24 08:50:17;;;;;;;2.42;1.80;;;;;;;9.74;81.62;99023.69;5034661;28;20565;-66
2024/03/24 08:52:42;;;;;;;2.55;1.48;;;;;;;9.57;82.31;99017.22;5040132;28;20399;-67
2024/03/24 08:55:08;;;;;;;7.07;2.47;;;;;;;9.50;82.49;99025.31;5040342;28;20072;-67
2024/03/24 08:57:35;;;;;;;3.95;1.90;;;;;;;9.38;82.54;99014.97;5025766;28;20025;-66
2024/03/24 09:00:01;;;;;;;5.00;2.75;;;;;;;9.30;82.77;99015.34;5031983;28;20072;-66
2024/03/24 09:02:27;;;;;;;3.55;2.45;;;;;;;9.16;83.99;99016.13;5047411;28;20014;-66
2024/03/24 09:04:55;;;;;;;3.97;2.15;;;;;;;9.40;82.87;99017.25;5044762;28;20120;-67
2024/03/24 09:07:21;;;;;;;6.40;2.47;;;;;;;9.56;82.37;99014.94;5010310;28;20040;-70
2024/03/24 09:09:47;;;;;;;4.05;2.38;;;;;;;9.62;82.45;99005.31;5031901;28;20063;-67
2024/03/24 09:12:13;;;;;;;2.83;1.83;;;;;;;9.80;81.46;99016.75;5035745;28;20021;-67
2024/03/24 09:14:39;;;;;;;3.35;2.22;;;;;;;9.74;81.51;99011.03;5044819;28;20033;-67
2024/03/24 09:17:04;;;;;;;5.15;2.20;;;;;;;9.88;80.80;99012.91;5039124;28;20032;-67
2024/03/24 09:19:30;;;;;;;3.13;2.15;;;;;;;10.03;80.20;99019.75;5049307;28;20041;-66
2024/03/24 09:22:00;;;;;;;4.13;2.22;;;;;;;9.83;81.04;99005.25;5023493;28;20124;-66
2024/03/24 09:24:25;;;;;;;2.95;1.80;;;;;;;10.00;80.63;99007.09;5023928;28;20109;-66
2024/03/24 09:26:51;;;;;;;3.88;2.28;;;;;;;9.82;81.28;99007.16;5040320;28;20844;-67
2024/03/24 09:29:17;;;;;;;3.22;1.98;;;;;;;9.98;80.80;99004.03;5060006;28;20029;-66
2024/03/24 09:31:42;;;;;;;4.03;2.28;;;;;;;10.03;80.72;99009.75;5024572;28;20088;-66
2024/03/24 09:34:08;;;;;;;2.45;1.63;;;;;;;10.25;80.27;99001.59;5031523;28;20013;-67
2024/03/24 09:36:33;;;;;;;4.70;2.15;;;;;;;10.15;79.96;99003.19;5046821;28;20037;-66
2024/03/24 09:38:59;;;;;;;2.25;1.50;;;;;;;10.26;79.50;99006.59;5045839;28;20405;-67
2024/03/24 09:41:27;;;;;;;4.07;2.35;;;;;;;10.10;80.62;98992.84;5026571;28;20025;-66
2024/03/24 09:43:53;;;;;;;3.25;2.10;;;;;;;9.77;81.00;98998.72;5059098;28;20023;-66
2024/03/24 09:46:20;;;;;;;5.35;1.92;;;;;;;9.91;80.82;98999.44;5047963;28;20025;-66
2024/03/24 09:48:49;;;;;;;3.20;1.90;;;;;;;10.15;80.72;98997.81;5031714;28;20488;-67
2024/03/24 09:51:16;;;;;;;6.88;2.03;;;;;;;10.35;79.01;98995.41;5027905;28;20494;-66
2024/03/24 09:53:42;;;;;;;2.45;1.45;;;;;;;10.49;78.80;98990.69;5032877;28;20804;-67
2024/03/24 09:56:09;;;;;;;4.72;2.05;;;;;;;10.62;76.92;98993.69;5031217;28;20037;-66
2024/03/24 09:58:36;;;;;;;3.53;1.63;;;;;;;10.16;77.53;99002.06;5036376;28;20100;-66
2024/03/24 10:01:03;;;;;;;4.20;1.98;;;;;;;10.16;78.52;98996.69;5040681;28;20495;-66
2024/03/24 10:03:30;;;;;;;2.60;1.40;;;;;;;9.79;79.45;98996.44;5032932;28;20009;-66
2024/03/24 10:05:56;;;;;;;8.15;2.03;;;;;;;9.62;80.72;98997.25;5034444;28;20029;-66
2024/03/24 10:08:21;;;;;;;2.85;1.83;;;;;;;9.78;80.29;99005.63;5052239;28;20016;-68
2024/03/24 10:10:47;;;;;;;1.85;1.40;;;;;;;9.90;80.75;98989.06;5028098;28;20394;-66
2024/03/24 10:13:13;;;;;;;2.95;1.70;;;;;;;9.90;79.46;98994.44;5049837;28;20028;-65
2024/03/24 10:15:38;;;;;;;2.83;1.20;;;;;;;10.16;79.32;98991.28;5030615;28;20108;-67
2024/03/24 10:18:11;;;;;;;5.18;1.92;;;;;;;9.88;78.52;98981.41;5046713;28;20026;-67
2024/03/24 10:20:38;;;;;;;1.30;1.20;;;;;;;9.83;78.92;98989.84;5060298;28;20025;-66
2024/03/24 10:23:04;;;;;;;1.65;1.40;;;;;;;9.96;78.98;98984.81;5011741;28;20556;-67
2024/03/24 10:25:32;;;;;;;3.45;1.48;;;;;;;10.03;79.05;98990.16;5043907;28;20063;-67
2024/03/24 10:27:59;;;;;;;1.52;1.17;;;;;;;9.95;80.66;98994.03;5017716;28;20029;-66
2024/03/24 10:30:25;;;;;;;3.10;1.65;;;;;;;10.04;79.85;98986.31;5042567;28;20617;-66
2024/03/24 10:32:51;;;;;;;5.60;2.33;;;;;;;9.91;80.51;98987.94;5030736;28;20029;-66
2024/03/24 10:35:19;;;;;;;3.03;1.83;;;;;;;9.84;81.14;98987.94;5045121;28;20052;-66
2024/03/24 10:37:45;;;;;;;2.00;1.50;;;;;;;10.09;80.23;98983.22;5025442;28;20057;-66
2024/03/24 10:40:13;;;;;;;4.07;1.70;;;;;;;10.15;79.58;98987.06;5011774;28;20497;-66
2024/03/24 10:42:53;;;;;;;2.67;1.30;;;;;;;10.30;79.41;98972.38;5024354;28;20025;-66
2024/03/24 10:45:24;;;;;;;2.38;1.67;;;;;;;10.38;80.13;98979.22;5026301;28;20029;-71
2024/03/24 10:47:58;;;;;;;3.45;1.58;;;;;;;10.35;79.74;98977.34;5025508;28;20107;-64
2024/03/24 10:50:24;;;;;;;2.22;1.90;;;;;;;10.58;79.25;98972.19;5031372;28;20086;-66
2024/03/24 10:52:56;;;;;;;2.50;1.80;;;;;;;10.55;79.69;98972.22;5041307;28;20021;-65
2024/03/24 10:55:22;;;;;;;2.53;1.73;;;;;;;10.62;78.18;98972.94;5040979;28;20062;-65
2024/03/24 10:57:49;;;;;;;7.20;1.58;;;;;;;10.86;77.18;98958.50;5046441;28;20429;-65
2024/03/24 11:00:15;;;;;;;1.75;1.33;;;;;;;10.58;77.31;98964.13;5023360;28;20030;-66
2024/03/24 11:02:42;;;;;;;2.28;1.00;;;;;;;10.22;77.51;98968.19;5065331;28;20013;-70
2024/03/24 11:05:09;;;;;;;4.32;0.90;;;;;;;10.27;78.47;98969.69;5029176;28;20026;-66
2024/03/24 11:07:37;;;;;;;1.50;1.00;;;;;;;10.40;78.45;98970.75;5032942;28;20033;-67
2024/03/24 11:10:04;;;;;;;1.98;1.27;;;;;;;10.46;77.22;98963.81;5042899;28;20030;-67
2024/03/24 11:12:32;;;;;;;2.97;1.35;;;;;;;10.52;76.06;98970.31;5047567;28;20048;-65
2024/03/24 11:14:58;;;;;;;0.80;0.80;;;;;;;10.42;75.76;98963.84;5033174;28;20033;-66
2024/03/24 11:17:23;;;;;;;1.02;0.60;;;;;;;10.55;76.01;98972.22;5056345;28;20406;-66
2024/03/24 11:19:50;;;;;;;2.20;1.08;;;;;;;10.69;75.10;98966.72;5051559;28;20036;-67
2024/03/24 11:22:21;;;;;;;5.18;1.20;;;;;;;10.51;75.84;98960.72;5029893;28;20017;-69
2024/03/24 11:24:46;;;;;;;;;;;;;;;10.63;75.07;98962.91;5045078;28;20061;-65
2024/03/24 11:27:26;;;;;;;2.03;1.15;;;;;;;10.86;74.99;98950.41;5036661;28;20452;-66
2024/03/24 11:29:52;;;;;;;1.25;1.00;;;;;;;10.81;74.02;98953.53;5031301;28;20099;-68
2024/03/24 11:32:18;;;;;;;1.75;1.25;;;;;;;10.88;74.19;98945.38;5067689;28;20059;-66
2024/03/24 11:34:54;;;;;;;1.95;1.23;;;;;;;10.78;75.20;98946.25;5044882;28;20036;-67
2024/03/24 11:37:23;;;;;;;1.67;1.20;;;;;;;10.82;75.89;98944.28;5053095;28;20040;-66